createdAt,value
2023-03-26T00:02:04.871Z,100539.00
2023-03-26T00:04:33.705Z,100540.81
2023-03-26T00:07:01.797Z,100530.13
2023-03-26T00:09:29.891Z,100539.00
2023-03-26T00:11:59.058Z,100539.00
2023-03-26T00:14:26.975Z,100539.00
2023-03-26T00:16:54.718Z,100536.31
2023-03-26T00:19:22.803Z,100531.00
2023-03-26T00:21:52.652Z,100527.41
2023-03-26T00:24:20.359Z,100529.16
2023-03-26T00:26:53.327Z,100519.44
2023-03-26T00:29:24.660Z,100529.22
2023-03-26T00:31:52.411Z,100527.44
2023-03-26T00:34:20.769Z,100531.88
2023-03-26T00:36:54.270Z,100521.25
2023-03-26T00:39:24.031Z,100517.72
2023-03-26T00:41:54.548Z,100517.72
2023-03-26T00:44:24.225Z,100517.75
2023-03-26T00:46:51.986Z,100523.13
2023-03-26T00:49:19.842Z,100513.34
2023-03-26T00:51:47.568Z,100518.69
2023-03-26T00:54:15.645Z,100512.50
2023-03-26T00:56:43.526Z,100516.03
2023-03-26T00:59:11.678Z,100523.13
2023-03-26T01:01:40.870Z,100516.91
2023-03-26T01:04:27.954Z,100512.44
2023-03-26T01:06:56.621Z,100515.97
2023-03-26T01:09:32.863Z,100515.06
2023-03-26T01:12:02.062Z,100509.72
2023-03-26T01:14:30.243Z,100499.94
2023-03-26T01:17:01.441Z,100499.91
2023-03-26T01:19:33.973Z,100502.59
2023-03-26T01:22:01.876Z,100499.03
2023-03-26T01:24:31.111Z,100495.44
2023-03-26T01:27:25.695Z,100495.44
2023-03-26T01:29:55.714Z,100492.78
2023-03-26T01:32:32.069Z,100496.31
2023-03-26T01:35:12.406Z,100487.44
2023-03-26T01:37:52.772Z,100478.53
2023-03-26T01:40:27.975Z,100481.22
2023-03-26T01:43:05.355Z,100479.47
2023-03-26T01:45:37.154Z,100472.38
2023-03-26T01:48:06.192Z,100475.06
2023-03-26T01:50:34.037Z,100463.50
2023-03-26T01:53:02.182Z,100459.97
2023-03-26T01:55:36.503Z,100448.44
2023-03-26T01:58:13.867Z,100446.66
2023-03-26T02:00:49.846Z,100442.22
2023-03-26T02:03:27.080Z,100443.13
2023-03-26T02:05:59.526Z,100439.59
2023-03-26T02:08:35.445Z,100432.50
2023-03-26T02:11:11.464Z,100426.31
2023-03-26T02:13:40.073Z,100431.63
2023-03-26T02:16:11.567Z,100416.50
2023-03-26T02:18:39.704Z,100431.63
2023-03-26T02:21:10.965Z,100422.75
2023-03-26T02:23:40.266Z,100421.88
2023-03-26T02:26:11.216Z,100419.22
2023-03-26T02:28:39.820Z,100413.91
2023-03-26T02:31:09.674Z,100416.56
2023-03-26T02:33:38.153Z,100408.56
2023-03-26T02:36:08.473Z,100404.13
2023-03-26T02:38:36.534Z,100405.00
2023-03-26T02:41:13.523Z,100405.88
2023-03-26T02:43:41.233Z,100395.22
2023-03-26T02:46:08.972Z,100393.44
2023-03-26T02:48:36.709Z,100396.09
2023-03-26T02:51:06.643Z,100391.63
2023-03-26T02:53:34.456Z,100389.81
2023-03-26T02:56:02.380Z,100380.97
2023-03-26T02:58:31.432Z,100373.00
2023-03-26T03:00:59.170Z,100372.13
2023-03-26T03:03:28.216Z,100366.81
2023-03-26T03:05:56.525Z,100361.56
2023-03-26T03:08:28.089Z,100354.50
2023-03-26T03:11:00.957Z,100355.44
2023-03-26T03:13:29.320Z,100351.00
2023-03-26T03:15:58.424Z,100340.38
2023-03-26T03:18:26.205Z,100336.78
2023-03-26T03:20:53.969Z,100335.09
2023-03-26T03:23:21.704Z,100338.66
2023-03-26T03:25:52.376Z,100335.13
2023-03-26T03:28:20.505Z,100333.38
2023-03-26T03:30:48.864Z,100328.94
2023-03-26T03:33:20.284Z,100321.84
2023-03-26T03:35:48.980Z,100317.41
2023-03-26T03:38:17.013Z,100326.34
2023-03-26T03:40:45.093Z,100322.78
2023-03-26T03:43:12.780Z,100322.78
2023-03-26T03:45:40.673Z,100318.34
2023-03-26T03:48:08.499Z,100313.00
2023-03-26T03:50:38.189Z,100313.00
2023-03-26T03:53:06.622Z,100310.34
2023-03-26T03:55:34.364Z,100312.16
2023-03-26T03:58:02.112Z,100307.69
2023-03-26T04:00:30.660Z,100307.75
2023-03-26T04:02:58.764Z,100301.56
2023-03-26T04:05:26.597Z,100295.28
2023-03-26T04:07:55.707Z,100292.63
2023-03-26T04:10:23.466Z,100288.19
2023-03-26T04:12:51.184Z,100283.72
2023-03-26T04:15:19.002Z,100289.94
2023-03-26T04:17:46.781Z,100283.75
2023-03-26T04:20:15.692Z,100280.19
2023-03-26T04:22:43.705Z,100273.03
2023-03-26T04:25:15.483Z,100276.56
2023-03-26T04:27:44.105Z,100273.00
2023-03-26T04:30:15.791Z,100266.72
2023-03-26T04:32:44.687Z,100272.88
2023-03-26T04:35:14.517Z,100268.44
2023-03-26T04:37:44.442Z,100262.16
2023-03-26T04:40:18.372Z,100263.97
2023-03-26T04:42:46.530Z,100252.38
2023-03-26T04:45:15.349Z,100262.13
2023-03-26T04:47:43.029Z,100247.91
2023-03-26T04:50:12.382Z,100248.75
2023-03-26T04:52:40.963Z,100247.84
2023-03-26T04:55:20.688Z,100246.94
2023-03-26T04:57:54.755Z,100243.38
2023-03-26T05:00:22.732Z,100239.81
2023-03-26T05:02:51.085Z,100227.34
2023-03-26T05:05:19.026Z,100225.59
2023-03-26T05:07:46.882Z,100228.25
2023-03-26T05:10:17.534Z,100219.34
2023-03-26T05:12:45.228Z,100218.44
2023-03-26T05:15:13.770Z,100209.59
2023-03-26T05:17:42.641Z,100201.63
2023-03-26T05:20:20.790Z,100202.53
2023-03-26T05:22:48.733Z,100195.41
2023-03-26T05:25:18.474Z,100191.84
2023-03-26T05:27:46.749Z,100187.38
2023-03-26T05:30:16.662Z,100186.50
2023-03-26T05:32:44.678Z,100179.34
2023-03-26T05:35:12.753Z,100172.25
2023-03-26T05:37:40.409Z,100167.78
2023-03-26T05:40:12.293Z,100169.59
2023-03-26T05:42:42.311Z,100166.91
2023-03-26T05:45:11.955Z,100160.72
2023-03-26T05:47:39.702Z,100158.06
2023-03-26T05:50:08.718Z,100158.09
2023-03-26T05:52:36.715Z,100155.44
2023-03-26T05:55:04.758Z,100147.44
2023-03-26T05:57:32.894Z,100149.19
2023-03-26T06:00:02.482Z,100144.72
2023-03-26T06:02:30.476Z,100149.16
2023-03-26T06:04:58.185Z,100138.50
2023-03-26T06:07:27.000Z,100139.34
2023-03-26T06:09:54.858Z,100143.81
2023-03-26T06:12:22.670Z,100136.66
2023-03-26T06:14:50.397Z,100136.63
2023-03-26T06:17:19.497Z,100137.53
2023-03-26T06:19:47.872Z,100133.94
2023-03-26T06:22:15.636Z,100132.16
2023-03-26T06:24:43.379Z,100131.25
2023-03-26T06:27:11.085Z,100126.84
2023-03-26T06:29:38.791Z,100128.59
2023-03-26T06:32:18.963Z,100125.91
2023-03-26T06:34:49.150Z,100119.63
2023-03-26T06:37:16.970Z,100119.63
2023-03-26T06:39:44.761Z,100121.34
2023-03-26T06:42:12.455Z,100116.94
2023-03-26T06:44:40.289Z,100117.81
2023-03-26T06:47:08.023Z,100116.00
2023-03-26T06:49:36.487Z,100115.97
2023-03-26T06:52:06.024Z,100107.06
2023-03-26T06:54:33.779Z,100107.97
2023-03-26T06:57:01.583Z,100103.50
2023-03-26T06:59:29.231Z,100098.97
2023-03-26T07:01:56.957Z,100096.31
2023-03-26T07:04:24.762Z,100098.00
2023-03-26T07:06:52.582Z,100091.72
2023-03-26T07:09:21.668Z,100092.53
2023-03-26T07:11:49.374Z,100086.25
2023-03-26T07:14:17.062Z,100080.00
2023-03-26T07:16:44.879Z,100071.94
2023-03-26T07:19:12.619Z,100069.25
2023-03-26T07:21:40.923Z,100068.34
2023-03-26T07:24:11.790Z,100062.03
2023-03-26T07:26:50.125Z,100061.09
2023-03-26T07:29:26.217Z,100059.31
2023-03-26T07:32:02.077Z,100062.78
2023-03-26T07:34:46.490Z,100059.22
2023-03-26T07:37:27.111Z,100052.06
2023-03-26T07:40:05.860Z,100051.13
2023-03-26T07:42:45.992Z,100047.59
2023-03-26T07:45:23.584Z,100040.41
2023-03-26T07:47:53.612Z,100040.41
2023-03-26T07:50:23.333Z,100041.28
2023-03-26T07:52:51.669Z,100040.31
2023-03-26T07:55:20.636Z,100037.63
2023-03-26T07:58:02.060Z,100034.97
2023-03-26T08:00:33.982Z,100027.91
2023-03-26T08:03:24.025Z,100034.13
2023-03-26T08:05:58.257Z,100029.66
2023-03-26T08:08:34.319Z,100029.63
2023-03-26T08:11:13.820Z,100026.03
2023-03-26T08:13:57.644Z,100019.72
2023-03-26T08:16:30.520Z,100021.41
2023-03-26T08:19:07.836Z,100024.94
2023-03-26T08:21:40.260Z,100014.22
2023-03-26T08:24:14.712Z,100024.72
2023-03-26T08:26:49.438Z,100025.56
2023-03-26T08:29:32.707Z,100021.03
2023-03-26T08:32:02.614Z,100019.25
2023-03-26T08:34:30.351Z,100015.75
2023-03-26T08:36:58.098Z,100017.56
2023-03-26T08:39:25.828Z,100023.84
2023-03-26T08:42:27.691Z,100020.25
2023-03-26T08:45:35.507Z,100022.97
2023-03-26T08:48:50.814Z,100015.00
2023-03-26T08:52:03.236Z,100006.19
2023-03-26T08:54:47.978Z,100017.72
2023-03-26T08:57:49.331Z,100019.41
2023-03-26T09:00:32.912Z,100013.19
2023-03-26T09:03:18.352Z,100013.13
2023-03-26T09:06:26.222Z,100009.53
2023-03-26T09:09:22.161Z,100008.69
2023-03-26T09:12:18.237Z,100006.00
2023-03-26T09:15:39.740Z,100009.53
2023-03-26T09:18:41.441Z,100010.47
2023-03-26T09:21:38.479Z,99997.91
2023-03-26T09:24:50.021Z,100000.47
2023-03-26T09:27:37.216Z,100007.59
2023-03-26T09:30:34.074Z,100008.50
2023-03-26T09:33:33.792Z,100001.28
2023-03-26T09:36:22.727Z,100002.97
2023-03-26T09:39:00.349Z,100001.16
2023-03-26T09:41:39.393Z,99997.69
2023-03-26T09:44:45.815Z,100000.34
2023-03-26T09:47:34.836Z,100000.41
2023-03-26T09:50:21.577Z,99994.19
2023-03-26T09:53:03.979Z,99996.00
2023-03-26T09:55:45.268Z,99990.66
2023-03-26T09:58:35.640Z,99995.03
2023-03-26T10:01:12.541Z,99994.97
2023-03-26T10:03:52.632Z,99995.88
2023-03-26T10:06:32.631Z,99991.44
2023-03-26T10:09:15.052Z,99994.00
2023-03-26T10:11:59.318Z,99996.56
2023-03-26T10:14:33.580Z,99984.84
2023-03-26T10:17:10.590Z,99981.97
2023-03-26T10:20:01.641Z,99984.56
2023-03-26T10:22:45.472Z,99982.94
2023-03-26T10:25:36.118Z,99983.97
2023-03-26T10:28:20.300Z,99979.50
2023-03-26T10:31:27.852Z,99986.56
2023-03-26T10:34:06.493Z,99977.81
2023-03-26T10:36:37.033Z,99981.44
2023-03-26T10:39:36.709Z,99989.50
2023-03-26T10:42:22.271Z,99987.00
2023-03-26T10:45:11.241Z,99992.53
2023-03-26T10:48:10.746Z,99988.16
2023-03-26T10:51:03.829Z,99982.72
2023-03-26T10:53:38.552Z,99987.03
2023-03-26T10:56:18.216Z,99986.91
2023-03-26T10:58:49.408Z,99988.53
2023-03-26T11:01:25.963Z,99988.19
2023-03-26T11:03:54.882Z,99983.41
2023-03-26T11:06:38.701Z,99989.41
2023-03-26T11:09:19.772Z,99986.56
2023-03-26T11:11:55.109Z,99978.44
2023-03-26T11:14:34.913Z,99981.03
2023-03-26T11:17:15.060Z,99988.16
2023-03-26T11:20:06.310Z,99983.22
2023-03-26T11:22:43.982Z,99984.47
2023-03-26T11:25:46.463Z,99990.78
2023-03-26T11:28:33.578Z,99985.34
2023-03-26T11:31:14.537Z,99994.16
2023-03-26T11:33:48.242Z,99987.84
2023-03-26T11:36:22.149Z,99994.25
2023-03-26T11:38:52.242Z,99986.16
2023-03-26T11:41:23.499Z,99985.97
2023-03-26T11:43:55.197Z,99984.97
2023-03-26T11:46:26.101Z,99988.25
2023-03-26T11:48:58.100Z,99983.81
2023-03-26T11:51:32.788Z,99985.47
2023-03-26T11:54:00.732Z,99981.88
2023-03-26T11:56:33.668Z,99981.69
2023-03-26T11:59:08.610Z,99986.78
2023-03-26T12:01:51.473Z,99986.53
2023-03-26T12:04:21.140Z,99987.28
2023-03-26T12:06:56.567Z,99987.88
2023-03-26T12:09:25.799Z,99982.22
2023-03-26T12:12:00.487Z,99980.19
2023-03-26T12:14:31.508Z,99978.06
2023-03-26T12:17:03.849Z,99973.50
2023-03-26T12:19:42.510Z,99976.06
2023-03-26T12:22:29.469Z,99975.25
2023-03-26T12:25:16.131Z,99974.38
2023-03-26T12:27:45.402Z,99977.81
2023-03-26T12:30:21.538Z,99975.88
2023-03-26T12:32:53.279Z,99981.19
2023-03-26T12:35:26.786Z,99974.88
2023-03-26T12:37:55.757Z,99962.53
2023-03-26T12:40:34.257Z,99962.47
2023-03-26T12:44:50.756Z,99964.06
2023-03-26T12:46:58.953Z,99969.56
2023-03-26T12:48:48.526Z,99973.97
2023-03-26T12:51:27.717Z,99978.06
2023-03-26T12:54:05.152Z,99978.34
2023-03-26T12:56:40.455Z,99969.69
2023-03-26T12:59:24.618Z,99975.09
2023-03-26T13:02:02.219Z,99966.16
2023-03-26T13:05:05.096Z,99981.31
2023-03-26T13:07:52.800Z,99983.91
2023-03-26T13:10:43.119Z,99983.06
2023-03-26T13:13:23.406Z,99981.25
2023-03-26T13:15:53.726Z,99981.94
2023-03-26T13:18:45.372Z,99981.97
2023-03-26T13:21:31.211Z,99974.69
2023-03-26T13:24:11.354Z,99984.22
2023-03-26T13:26:51.497Z,99981.66
2023-03-26T13:29:26.139Z,99982.50
2023-03-26T13:32:04.589Z,99979.16
2023-03-26T13:34:41.181Z,99985.75
2023-03-26T13:37:17.303Z,99986.22
2023-03-26T13:39:56.918Z,99997.34
2023-03-26T13:42:37.886Z,99988.25
2023-03-26T13:45:15.065Z,99987.31
2023-03-26T13:47:48.472Z,99986.53
2023-03-26T13:50:23.095Z,99990.19
2023-03-26T13:52:57.058Z,99992.16
2023-03-26T13:55:30.053Z,100001.00
2023-03-26T13:58:04.973Z,99998.28
2023-03-26T14:00:54.464Z,100000.91
2023-03-26T14:03:30.196Z,100001.72
2023-03-26T14:06:05.026Z,100008.00
2023-03-26T14:08:39.014Z,100001.47
2023-03-26T14:11:12.264Z,99996.66
2023-03-26T14:13:44.710Z,100000.25
2023-03-26T14:16:15.885Z,100006.28
2023-03-26T14:18:50.421Z,100001.56
2023-03-26T14:21:40.821Z,100006.09
2023-03-26T14:24:32.138Z,100007.19
2023-03-26T14:27:43.992Z,100007.44
2023-03-26T14:30:59.298Z,100019.22
2023-03-26T14:33:45.378Z,100008.00
2023-03-26T14:36:26.035Z,100015.25
2023-03-26T14:39:23.639Z,100011.66
2023-03-26T14:41:53.259Z,100021.91
2023-03-26T14:44:47.816Z,100030.84
2023-03-26T14:47:18.885Z,100038.84
2023-03-26T14:50:21.472Z,100038.13
2023-03-26T14:52:51.611Z,100033.84
2023-03-26T14:55:41.964Z,100047.44
2023-03-26T14:58:38.151Z,100047.59
2023-03-26T15:01:26.601Z,100052.66
2023-03-26T15:04:30.327Z,100063.63
2023-03-26T15:07:42.682Z,100063.81
2023-03-26T15:10:24.234Z,100068.47
2023-03-26T15:13:31.110Z,100077.34
2023-03-26T15:16:12.722Z,100073.63
2023-03-26T15:19:17.687Z,100071.94
2023-03-26T15:22:31.723Z,100085.25
2023-03-26T15:25:33.252Z,100086.63
2023-03-26T15:28:45.025Z,100093.56
2023-03-26T15:31:42.675Z,100095.31
2023-03-26T15:34:35.523Z,100098.88
2023-03-26T15:37:22.294Z,100092.03
2023-03-26T15:40:11.338Z,100099.22
2023-03-26T15:42:52.408Z,100092.06
2023-03-26T15:45:33.025Z,100108.97
2023-03-26T15:48:13.823Z,100126.03
2023-03-26T15:50:53.809Z,100126.06
2023-03-26T15:53:34.842Z,100132.44
2023-03-26T15:56:44.233Z,100136.03
2023-03-26T15:59:31.140Z,100140.69
2023-03-26T16:02:12.066Z,100149.53
2023-03-26T16:04:50.415Z,100154.88
2023-03-26T16:07:38.956Z,100158.34
2023-03-26T16:10:35.076Z,100158.66
2023-03-26T16:13:36.258Z,100170.25
2023-03-26T16:16:25.817Z,100169.31
2023-03-26T16:18:59.477Z,100175.53
2023-03-26T16:21:56.058Z,100183.78
2023-03-26T16:24:31.943Z,100182.91
2023-03-26T16:27:32.122Z,100187.41
2023-03-26T16:30:16.497Z,100204.38
2023-03-26T16:32:56.083Z,100206.94
2023-03-26T16:35:40.079Z,100208.66
2023-03-26T16:38:13.403Z,100212.94
2023-03-26T16:41:00.243Z,100218.25
2023-03-26T16:43:48.558Z,100222.72
2023-03-26T16:46:29.525Z,100229.72
2023-03-26T16:49:04.966Z,100229.72
2023-03-26T16:51:47.665Z,100239.50
2023-03-26T16:54:19.315Z,100244.84
2023-03-26T16:56:51.869Z,100254.72
2023-03-26T17:00:06.738Z,100262.75
2023-03-26T17:02:46.265Z,100258.31
2023-03-26T17:05:21.036Z,100263.72
2023-03-26T17:08:01.153Z,100275.38
2023-03-26T17:10:36.231Z,100278.94
2023-03-26T17:13:08.704Z,100289.53
2023-03-26T17:15:42.149Z,100296.84
2023-03-26T17:18:36.327Z,100304.97
2023-03-26T17:21:11.997Z,100319.16
2023-03-26T17:24:00.921Z,100313.94
2023-03-26T17:26:34.922Z,100330.81
2023-03-26T17:29:24.377Z,100322.00
2023-03-26T17:32:00.418Z,100340.59
2023-03-26T17:34:46.822Z,100343.25
2023-03-26T17:37:33.466Z,100351.22
2023-03-26T17:40:38.207Z,100352.97
2023-03-26T17:43:11.120Z,100364.72
2023-03-26T17:45:40.405Z,100370.00
2023-03-26T17:48:16.948Z,100375.38
2023-03-26T17:50:51.829Z,100374.38
2023-03-26T17:53:25.722Z,100384.16
2023-03-26T17:55:54.677Z,100389.50
2023-03-26T17:58:34.670Z,100404.63
2023-03-26T18:01:08.956Z,100411.66
2023-03-26T18:03:44.353Z,100421.44
2023-03-26T18:06:22.897Z,100425.97
2023-03-26T18:09:08.091Z,100432.25
2023-03-26T18:12:12.968Z,100437.59
2023-03-26T18:15:13.416Z,100446.50
2023-03-26T18:17:44.501Z,100451.03
2023-03-26T18:20:35.473Z,100456.38
2023-03-26T18:23:11.017Z,100465.19
2023-03-26T18:25:41.081Z,100463.44
2023-03-26T18:28:08.782Z,100462.59
2023-03-26T18:30:54.539Z,100472.34
2023-03-26T18:33:27.054Z,100474.13
2023-03-26T18:35:56.888Z,100481.25
2023-03-26T18:38:36.943Z,100482.16
2023-03-26T18:41:09.167Z,100484.78
2023-03-26T18:43:44.378Z,100493.66
2023-03-26T18:46:13.393Z,100503.44
2023-03-26T18:48:41.653Z,100514.13
2023-03-26T18:51:09.719Z,100515.00
2023-03-26T18:53:50.362Z,100514.13
2023-03-26T18:56:30.914Z,100528.31
2023-03-26T18:59:00.483Z,100535.38
2023-03-26T19:01:35.309Z,100544.25
2023-03-26T19:04:08.665Z,100542.50
2023-03-26T19:06:46.154Z,100538.94
2023-03-26T19:09:30.867Z,100538.94
2023-03-26T19:12:09.774Z,100546.06
2023-03-26T19:14:52.419Z,100552.31
2023-03-26T19:17:19.935Z,100562.94
2023-03-26T19:19:47.855Z,100573.56
2023-03-26T19:22:16.659Z,100571.78
2023-03-26T19:24:44.939Z,100581.59
2023-03-26T19:27:14.119Z,100588.66
2023-03-26T19:29:44.736Z,100587.78
2023-03-26T19:32:19.119Z,100615.25
2023-03-26T19:34:48.110Z,100608.16
2023-03-26T19:37:22.425Z,100618.78
2023-03-26T19:39:51.796Z,100606.38
2023-03-26T19:42:26.247Z,100609.94
2023-03-26T19:44:54.838Z,100624.13
2023-03-26T19:47:32.117Z,100632.97
2023-03-26T19:50:25.842Z,100636.53
2023-03-26T19:53:16.560Z,100635.63
2023-03-26T19:55:55.690Z,100649.81
2023-03-26T19:58:25.920Z,100656.91
2023-03-26T20:00:55.708Z,100655.16
2023-03-26T20:03:28.437Z,100663.09
2023-03-26T20:05:59.245Z,100668.41
2023-03-26T20:08:27.867Z,100692.25
2023-03-26T20:10:56.601Z,100688.75
2023-03-26T20:13:25.742Z,100688.75
2023-03-26T20:16:05.008Z,100703.81
2023-03-26T20:18:33.179Z,100704.75
2023-03-26T20:21:00.884Z,100701.97
2023-03-26T20:23:28.948Z,100705.56
2023-03-26T20:25:57.332Z,100715.31
2023-03-26T20:28:26.629Z,100727.69
2023-03-26T20:30:55.145Z,100729.38
2023-03-26T20:33:26.780Z,100747.03
2023-03-26T20:35:56.759Z,100744.41
2023-03-26T20:38:36.712Z,100746.13
2023-03-26T20:41:07.172Z,100761.97
2023-03-26T20:43:36.503Z,100760.19
2023-03-26T20:46:04.310Z,100763.69
2023-03-26T20:48:36.240Z,100773.44
2023-03-26T20:51:04.773Z,100774.38
2023-03-26T20:53:32.705Z,100785.88
2023-03-26T20:56:01.958Z,100779.75
2023-03-26T20:58:31.119Z,100793.88
2023-03-26T21:01:04.938Z,100799.19
2023-03-26T21:03:32.630Z,100793.72
2023-03-26T21:06:01.278Z,100800.84
2023-03-26T21:08:34.987Z,100816.63
2023-03-26T21:11:03.787Z,100814.88
2023-03-26T21:13:38.325Z,100821.09
2023-03-26T21:16:09.125Z,100830.84
2023-03-26T21:18:37.845Z,100835.97
2023-03-26T21:21:21.047Z,100834.06
2023-03-26T21:23:59.206Z,100841.19
2023-03-26T21:26:34.178Z,100849.97
2023-03-26T21:29:09.722Z,100856.91
2023-03-26T21:31:39.440Z,100859.66
2023-03-26T21:34:09.579Z,100856.94
2023-03-26T21:36:38.170Z,100874.69
2023-03-26T21:39:06.489Z,100875.56
2023-03-26T21:41:43.599Z,100887.88
2023-03-26T21:44:11.741Z,100891.47
2023-03-26T21:46:42.644Z,100902.78
2023-03-26T21:49:10.918Z,100901.72
2023-03-26T21:51:39.402Z,100915.03
2023-03-26T21:54:18.651Z,100905.16
2023-03-26T21:56:51.105Z,100912.38
2023-03-26T21:59:22.937Z,100909.66
2023-03-26T22:02:00.098Z,100916.75
2023-03-26T22:04:36.803Z,100929.13
2023-03-26T22:07:12.225Z,100928.13
2023-03-26T22:09:40.398Z,100940.41
2023-03-26T22:12:08.282Z,100945.69
2023-03-26T22:14:35.979Z,100951.94
2023-03-26T22:17:05.488Z,100952.00
2023-03-26T22:19:34.381Z,100962.56
2023-03-26T22:22:02.280Z,100968.69
2023-03-26T22:24:29.997Z,100970.41
2023-03-26T22:26:57.781Z,100970.25
2023-03-26T22:29:25.431Z,100971.94
2023-03-26T22:31:53.045Z,100976.44
2023-03-26T22:34:23.052Z,100984.28
2023-03-26T22:36:50.781Z,100986.91
2023-03-26T22:39:18.428Z,100992.22
2023-03-26T22:41:46.099Z,100995.75
2023-03-26T22:46:48.956Z,101003.81
2023-03-26T22:49:17.034Z,100996.81
2023-03-26T22:51:46.671Z,101010.13
2023-03-26T22:54:14.483Z,101009.25
2023-03-26T22:56:43.522Z,101016.34
2023-03-26T22:59:11.258Z,101025.16
2023-03-26T23:01:39.037Z,101026.06
2023-03-26T23:04:07.040Z,101033.16
2023-03-26T23:06:34.756Z,101042.75
2023-03-26T23:09:07.005Z,101050.66
2023-03-26T23:11:34.817Z,101054.91
2023-03-26T23:14:02.603Z,101056.69
2023-03-26T23:16:31.659Z,101055.69
2023-03-26T23:18:59.402Z,101068.13
2023-03-26T23:21:27.092Z,101077.91
2023-03-26T23:23:54.747Z,101072.34
2023-03-26T23:26:24.413Z,101080.31
2023-03-26T23:28:52.270Z,101078.47
2023-03-26T23:31:19.964Z,101082.81
2023-03-26T23:33:47.728Z,101093.34
2023-03-26T23:36:18.118Z,101093.34
2023-03-26T23:38:47.722Z,101098.66
2023-03-26T23:41:16.696Z,101106.59
2023-03-26T23:43:53.586Z,101097.69
2023-03-26T23:46:23.739Z,101110.84
2023-03-26T23:48:52.067Z,101118.81
2023-03-26T23:51:20.982Z,101112.66
2023-03-26T23:53:49.602Z,101120.59
2023-03-26T23:56:17.903Z,101127.41
2023-03-26T23:58:47.696Z,101129.06
